createdAt,value
2017-11-25T00:00:17.602Z,10.80
2017-11-25T00:01:20.083Z,11.80
2017-11-25T00:02:22.558Z,13.13
2017-11-25T00:03:25.067Z,15.33
2017-11-25T00:04:27.545Z,15.83
2017-11-25T00:05:30.009Z,14.30
2017-11-25T00:06:32.507Z,11.77
2017-11-25T00:07:34.986Z,20.57
2017-11-25T00:08:37.457Z,13.43
2017-11-25T00:09:39.943Z,12.90
2017-11-25T00:10:42.427Z,11.37
2017-11-25T00:11:44.914Z,11.67
2017-11-25T00:12:47.396Z,13.30
2017-11-25T00:13:49.864Z,9.13
2017-11-25T00:14:52.329Z,10.23
2017-11-25T00:15:54.803Z,9.77
2017-11-25T00:16:57.294Z,13.00
2017-11-25T00:17:59.791Z,14.07
2017-11-25T00:19:02.265Z,13.93
2017-11-25T00:20:04.754Z,11.87
2017-11-25T00:21:07.223Z,11.07
2017-11-25T00:22:09.707Z,14.70
2017-11-25T00:23:12.181Z,14.23
2017-11-25T00:24:14.640Z,8.43
2017-11-25T00:25:17.104Z,9.20
2017-11-25T00:26:19.590Z,12.03
2017-11-25T00:27:22.065Z,13.70
2017-11-25T00:28:24.527Z,10.17
2017-11-25T00:29:26.992Z,12.20
2017-11-25T00:30:29.470Z,8.40
2017-11-25T00:31:31.956Z,15.73
2017-11-25T00:32:34.445Z,10.13
2017-11-25T00:33:36.923Z,8.83
2017-11-25T00:34:39.400Z,8.23
2017-11-25T00:35:41.898Z,8.23
2017-11-25T00:36:44.363Z,9.87
2017-11-25T00:37:46.823Z,10.87
2017-11-25T00:38:49.284Z,11.03
2017-11-25T00:39:51.743Z,9.07
2017-11-25T00:40:54.225Z,9.10
2017-11-25T00:41:56.692Z,10.43
2017-11-25T00:42:59.163Z,11.30
2017-11-25T00:44:01.684Z,14.20
2017-11-25T00:45:04.162Z,7.43
2017-11-25T00:46:06.656Z,10.00
2017-11-25T00:47:09.146Z,10.93
2017-11-25T00:48:11.631Z,12.13
2017-11-25T00:49:14.179Z,9.93
2017-11-25T00:50:16.640Z,10.30
2017-11-25T00:51:19.100Z,16.27
2017-11-25T00:52:21.559Z,10.20
2017-11-25T00:53:24.043Z,7.00
2017-11-25T00:54:26.515Z,14.60
2017-11-25T00:55:28.990Z,8.43
2017-11-25T00:56:31.459Z,11.70
2017-11-25T00:57:33.951Z,10.53
2017-11-25T00:58:36.465Z,10.37
2017-11-25T00:59:38.951Z,14.20
2017-11-25T01:00:41.434Z,11.73
2017-11-25T01:01:43.917Z,11.70
2017-11-25T01:02:46.398Z,9.00
2017-11-25T01:03:48.902Z,9.90
2017-11-25T01:04:51.386Z,7.70
2017-11-25T01:05:53.871Z,7.17
2017-11-25T01:06:56.343Z,10.20
2017-11-25T01:07:58.822Z,14.50
2017-11-25T01:09:01.289Z,7.43
2017-11-25T01:10:03.768Z,10.90
2017-11-25T01:11:06.261Z,8.73
2017-11-25T01:12:08.745Z,10.67
2017-11-25T01:13:11.247Z,10.77
2017-11-25T01:14:13.749Z,7.97
2017-11-25T01:15:16.219Z,9.60
2017-11-25T01:16:18.754Z,10.03
2017-11-25T01:17:21.299Z,9.73
2017-11-25T01:18:23.819Z,12.03
2017-11-25T01:19:26.379Z,8.83
2017-11-25T01:20:28.911Z,13.40
2017-11-25T01:21:31.463Z,9.63
2017-11-25T01:22:34.002Z,8.03
2017-11-25T01:23:36.515Z,7.40
2017-11-25T01:24:39.054Z,12.27
2017-11-25T01:25:41.585Z,8.57
2017-11-25T01:26:44.122Z,8.53
2017-11-25T01:27:46.653Z,10.67
2017-11-25T01:28:49.192Z,9.23
2017-11-25T01:29:51.715Z,8.27
2017-11-25T01:30:54.255Z,10.30
2017-11-25T01:31:56.784Z,13.73
2017-11-25T01:32:59.304Z,12.67
2017-11-25T01:34:01.820Z,6.60
2017-11-25T01:35:04.357Z,11.07
2017-11-25T01:36:06.913Z,10.50
2017-11-25T01:37:09.427Z,9.13
2017-11-25T01:38:11.935Z,9.50
2017-11-25T01:39:14.456Z,10.00
2017-11-25T01:40:16.985Z,9.67
2017-11-25T01:41:19.588Z,7.10
2017-11-25T01:42:22.118Z,9.27
2017-11-25T01:43:24.670Z,7.10
2017-11-25T01:44:27.184Z,9.37
2017-11-25T01:45:29.691Z,7.47
2017-11-25T01:46:32.237Z,8.90
2017-11-25T01:47:34.751Z,8.00
2017-11-25T01:48:37.264Z,9.83
2017-11-25T01:49:39.868Z,7.07
2017-11-25T01:50:42.397Z,9.23
2017-11-25T01:51:44.936Z,8.67
2017-11-25T01:52:47.462Z,7.93
2017-11-25T01:53:49.994Z,6.90
2017-11-25T01:54:52.507Z,7.20
2017-11-25T01:55:55.038Z,7.23
2017-11-25T01:56:57.582Z,8.60
2017-11-25T01:58:00.103Z,10.73
2017-11-25T01:59:02.620Z,10.00
2017-11-25T02:00:05.149Z,7.60
2017-11-25T02:01:07.659Z,9.30
2017-11-25T02:02:10.186Z,6.83
2017-11-25T02:03:12.910Z,15.23
2017-11-25T02:04:15.515Z,7.80
2017-11-25T02:05:18.052Z,9.00
2017-11-25T02:06:20.558Z,7.37
2017-11-25T02:07:23.087Z,7.77
2017-11-25T02:08:25.598Z,6.83
2017-11-25T02:09:28.123Z,10.23
2017-11-25T02:10:30.631Z,8.17
2017-11-25T02:11:33.143Z,10.87
2017-11-25T02:12:35.734Z,11.90
2017-11-25T02:13:38.262Z,7.37
2017-11-25T02:14:40.779Z,7.07
2017-11-25T02:15:43.297Z,7.80
2017-11-25T02:16:45.821Z,9.33
2017-11-25T02:17:48.368Z,10.90
2017-11-25T02:18:50.889Z,7.13
2017-11-25T02:19:53.399Z,8.53
2017-11-25T02:20:55.922Z,6.50
2017-11-25T02:21:58.453Z,7.67
2017-11-25T02:23:00.990Z,6.77
2017-11-25T02:24:03.521Z,9.23
2017-11-25T02:25:06.037Z,7.23
2017-11-25T02:26:08.546Z,7.17
2017-11-25T02:27:11.076Z,5.33
2017-11-25T02:28:13.619Z,11.40
2017-11-25T02:29:16.145Z,5.87
2017-11-25T02:30:18.663Z,8.43
2017-11-25T02:31:21.190Z,5.70
2017-11-25T02:32:23.712Z,11.33
2017-11-25T02:33:26.239Z,7.13
2017-11-25T02:34:28.746Z,7.20
2017-11-25T02:35:31.266Z,8.60
2017-11-25T02:36:33.798Z,7.37
2017-11-25T02:37:36.329Z,6.50
2017-11-25T02:38:38.871Z,6.83
2017-11-25T02:39:41.375Z,6.80
2017-11-25T02:40:43.909Z,9.93
2017-11-25T02:41:46.425Z,7.27
2017-11-25T02:42:48.939Z,11.20
2017-11-25T02:43:51.487Z,6.40
2017-11-25T02:44:54.023Z,11.43
2017-11-25T02:45:56.527Z,7.80
2017-11-25T02:46:59.044Z,9.30
2017-11-25T02:48:01.576Z,6.50
2017-11-25T02:49:04.121Z,6.60
2017-11-25T02:50:06.630Z,9.57
2017-11-25T02:51:09.156Z,11.63
2017-11-25T02:52:11.673Z,6.30
2017-11-25T02:53:14.205Z,6.80
2017-11-25T02:54:16.740Z,12.50
2017-11-25T02:55:19.252Z,14.10
2017-11-25T02:56:21.775Z,8.03
2017-11-25T02:57:24.293Z,8.30
2017-11-25T02:58:26.817Z,8.57
2017-11-25T02:59:29.348Z,7.57
2017-11-25T03:00:31.856Z,6.90
2017-11-25T03:01:34.382Z,7.17
2017-11-25T03:02:36.890Z,8.07
2017-11-25T03:03:39.588Z,9.60
2017-11-25T03:04:42.138Z,8.73
2017-11-25T03:05:44.661Z,9.70
2017-11-25T03:06:47.179Z,9.20
2017-11-25T03:07:49.695Z,15.63
2017-11-25T03:08:52.218Z,6.43
2017-11-25T03:09:54.785Z,6.47
2017-11-25T03:10:57.305Z,17.13
2017-11-25T03:11:59.837Z,10.93
2017-11-25T03:13:02.359Z,11.30
2017-11-25T03:14:04.866Z,8.23
2017-11-25T03:15:07.408Z,7.50
2017-11-25T03:16:09.920Z,10.47
2017-11-25T03:17:12.435Z,17.87
2017-11-25T03:18:14.957Z,7.80
2017-11-25T03:19:17.484Z,7.10
2017-11-25T03:20:20.025Z,9.20
2017-11-25T03:21:22.541Z,6.53
2017-11-25T03:22:25.045Z,5.20
2017-11-25T03:23:27.565Z,7.60
2017-11-25T03:24:30.080Z,6.63
2017-11-25T03:25:32.607Z,5.33
2017-11-25T03:26:35.115Z,9.60
2017-11-25T03:27:37.641Z,7.97
2017-11-25T03:28:40.152Z,7.87
2017-11-25T03:29:42.676Z,9.40
2017-11-25T03:30:45.221Z,8.37
2017-11-25T03:31:47.735Z,7.23
2017-11-25T03:32:50.264Z,7.67
2017-11-25T03:33:52.797Z,7.00
2017-11-25T03:34:55.304Z,6.70
2017-11-25T03:35:57.883Z,5.73
2017-11-25T03:37:00.392Z,6.70
2017-11-25T03:38:02.923Z,9.33
2017-11-25T03:39:05.445Z,9.60
2017-11-25T03:40:07.968Z,8.70
2017-11-25T03:41:10.510Z,7.07
2017-11-25T03:42:13.061Z,10.40
2017-11-25T03:43:15.573Z,6.20
2017-11-25T03:44:18.101Z,7.20
2017-11-25T03:45:20.630Z,5.67
2017-11-25T03:46:23.219Z,15.23
2017-11-25T03:47:25.782Z,11.67
2017-11-25T03:48:28.301Z,8.63
2017-11-25T03:49:30.803Z,7.87
2017-11-25T03:50:33.317Z,9.37
2017-11-25T03:51:35.844Z,6.80
2017-11-25T03:52:38.379Z,5.67
2017-11-25T03:53:40.906Z,7.00
2017-11-25T03:54:43.443Z,5.33
2017-11-25T03:55:45.978Z,7.70
2017-11-25T03:56:48.509Z,6.23
2017-11-25T03:57:51.040Z,7.27
2017-11-25T03:58:53.573Z,7.90
2017-11-25T03:59:56.074Z,4.77
2017-11-25T04:00:58.597Z,5.77
2017-11-25T04:02:01.122Z,6.70
2017-11-25T04:03:03.631Z,5.23
2017-11-25T04:04:06.145Z,7.37
2017-11-25T04:05:08.673Z,8.30
2017-11-25T04:06:11.193Z,8.43
2017-11-25T04:07:13.737Z,6.37
2017-11-25T04:08:16.249Z,5.30
2017-11-25T04:09:18.764Z,8.50
2017-11-25T04:10:21.271Z,4.73
2017-11-25T04:11:23.790Z,6.17
2017-11-25T04:12:26.329Z,8.47
2017-11-25T04:13:28.844Z,10.33
2017-11-25T04:14:31.365Z,6.90
2017-11-25T04:15:33.883Z,7.77
2017-11-25T04:16:36.405Z,9.70
2017-11-25T04:17:38.942Z,8.70
2017-11-25T04:18:41.466Z,6.60
2017-11-25T04:19:43.972Z,9.53
2017-11-25T04:20:46.493Z,6.27
2017-11-25T04:21:49.033Z,6.10
2017-11-25T04:22:51.559Z,5.93
2017-11-25T04:23:54.098Z,6.80
2017-11-25T04:24:56.606Z,7.20
2017-11-25T04:25:59.133Z,7.70
2017-11-25T04:27:01.636Z,7.63
2017-11-25T04:28:04.177Z,7.93
2017-11-25T04:29:06.697Z,6.20
2017-11-25T04:30:09.206Z,7.00
2017-11-25T04:31:11.719Z,7.37
2017-11-25T04:32:14.222Z,5.67
2017-11-25T04:33:16.754Z,7.90
2017-11-25T04:34:19.271Z,7.37
2017-11-25T04:35:21.786Z,8.67
2017-11-25T04:36:24.297Z,4.27
2017-11-25T04:37:26.817Z,4.93
2017-11-25T04:38:29.360Z,37.90
2017-11-25T04:39:31.872Z,5.63
2017-11-25T04:40:34.402Z,8.50
2017-11-25T04:41:36.931Z,5.93
2017-11-25T04:42:39.436Z,7.40
2017-11-25T04:43:41.967Z,7.87
2017-11-25T04:44:44.504Z,6.90
2017-11-25T04:45:47.026Z,6.73
2017-11-25T04:46:49.536Z,6.30
2017-11-25T04:47:52.056Z,6.40
2017-11-25T04:48:54.601Z,9.87
2017-11-25T04:49:57.126Z,9.23
2017-11-25T04:50:59.654Z,6.93
2017-11-25T04:52:02.160Z,7.00
2017-11-25T04:53:04.669Z,7.13
2017-11-25T04:54:07.211Z,7.40
2017-11-25T04:55:09.734Z,5.60
2017-11-25T04:56:12.253Z,6.40
2017-11-25T04:57:14.760Z,5.23
2017-11-25T04:58:17.279Z,4.80
2017-11-25T04:59:19.821Z,6.23
2017-11-25T05:00:24.097Z,6.53
2017-11-25T05:01:26.603Z,8.33
2017-11-25T05:02:29.132Z,11.87
2017-11-25T05:03:31.653Z,7.23
2017-11-25T05:04:34.197Z,9.87
2017-11-25T05:05:36.721Z,11.23
2017-11-25T05:06:39.243Z,8.50
2017-11-25T05:07:41.770Z,10.57
2017-11-25T05:08:44.279Z,8.13
2017-11-25T05:09:46.808Z,12.10
2017-11-25T05:10:49.311Z,8.90
2017-11-25T05:11:51.837Z,15.33
2017-11-25T05:12:54.366Z,10.23
2017-11-25T05:13:57.208Z,14.37
2017-11-25T05:14:59.753Z,6.70
2017-11-25T05:16:02.568Z,7.97
2017-11-25T05:17:05.095Z,9.60
2017-11-25T05:18:07.601Z,8.83
2017-11-25T05:19:10.280Z,10.80
2017-11-25T05:20:12.810Z,7.60
2017-11-25T05:21:15.323Z,6.37
2017-11-25T05:22:17.852Z,9.03
2017-11-25T05:23:20.377Z,11.27
2017-11-25T05:24:22.891Z,10.17
2017-11-25T05:25:25.425Z,10.30
2017-11-25T05:26:27.940Z,9.90
2017-11-25T05:27:30.469Z,7.67
2017-11-25T05:28:32.984Z,12.07
2017-11-25T05:29:35.499Z,12.57
2017-11-25T05:30:38.075Z,7.80
2017-11-25T05:31:40.597Z,6.03
2017-11-25T05:32:43.122Z,13.70
2017-11-25T05:33:45.631Z,8.00
2017-11-25T05:34:48.154Z,8.83
2017-11-25T05:35:50.691Z,6.50
2017-11-25T05:36:53.225Z,10.17
2017-11-25T05:37:55.744Z,12.10
2017-11-25T05:38:58.255Z,13.80
2017-11-25T05:40:00.785Z,13.73
2017-11-25T05:41:03.324Z,10.70
2017-11-25T05:42:05.853Z,11.30
2017-11-25T05:43:08.378Z,15.50
2017-11-25T05:44:10.897Z,12.60
2017-11-25T05:45:14.402Z,10.57
2017-11-25T05:46:16.936Z,15.60
2017-11-25T05:47:19.471Z,8.87
2017-11-25T05:48:22.035Z,11.57
2017-11-25T05:49:24.570Z,10.67
2017-11-25T05:50:27.094Z,5.00
2017-11-25T05:51:29.598Z,6.30
2017-11-25T05:52:32.117Z,5.70
2017-11-25T05:53:34.641Z,10.33
2017-11-25T05:54:37.173Z,14.60
2017-11-25T05:55:39.698Z,7.47
2017-11-25T05:56:42.283Z,12.43
2017-11-25T05:57:44.799Z,9.30
2017-11-25T05:58:47.329Z,6.63
2017-11-25T05:59:49.874Z,9.73
2017-11-25T06:00:52.367Z,15.73
2017-11-25T06:01:54.905Z,10.13
2017-11-25T06:02:57.427Z,8.27
2017-11-25T06:03:59.939Z,11.50
2017-11-25T06:05:02.462Z,6.90
2017-11-25T06:06:04.970Z,7.20
2017-11-25T06:07:07.476Z,9.40
2017-11-25T06:08:09.986Z,9.00
2017-11-25T06:09:12.499Z,6.67
2017-11-25T06:10:15.180Z,6.93
2017-11-25T06:11:17.687Z,7.90
2017-11-25T06:12:20.209Z,12.23
2017-11-25T06:13:22.756Z,9.10
2017-11-25T06:14:25.270Z,5.10
2017-11-25T06:15:27.787Z,12.23
2017-11-25T06:16:30.292Z,7.93
2017-11-25T06:17:32.805Z,5.47
2017-11-25T06:18:35.322Z,13.43
2017-11-25T06:19:37.827Z,8.03
2017-11-25T06:20:40.331Z,13.80
2017-11-25T06:21:42.863Z,15.83
2017-11-25T06:22:45.401Z,17.97
2017-11-25T06:23:47.923Z,20.73
2017-11-25T06:24:50.440Z,20.73
2017-11-25T06:25:52.954Z,20.00
2017-11-25T06:26:55.467Z,27.17
2017-11-25T06:27:57.979Z,20.37
2017-11-25T06:29:00.521Z,36.23
2017-11-25T06:30:03.071Z,51.13
2017-11-25T06:31:05.597Z,47.37
2017-11-25T06:32:08.135Z,42.73
2017-11-25T06:33:10.656Z,50.03
2017-11-25T06:34:13.193Z,47.07
2017-11-25T06:35:15.726Z,45.40
2017-11-25T06:36:18.238Z,38.10
2017-11-25T06:37:20.768Z,28.77
2017-11-25T06:38:23.299Z,27.90
2017-11-25T06:39:25.833Z,28.07
2017-11-25T06:40:28.359Z,23.43
2017-11-25T06:41:30.894Z,18.50
2017-11-25T06:42:33.429Z,15.57
2017-11-25T06:43:35.962Z,18.90
2017-11-25T06:44:38.504Z,14.03
2017-11-25T06:45:41.028Z,18.53
2017-11-25T06:46:43.560Z,16.50
2017-11-25T06:47:46.093Z,18.03
2017-11-25T06:48:48.611Z,12.83
2017-11-25T06:49:51.135Z,20.73
2017-11-25T06:50:53.669Z,12.83
2017-11-25T06:51:56.188Z,12.27
2017-11-25T06:52:58.782Z,13.00
2017-11-25T06:54:01.328Z,8.97
2017-11-25T06:55:03.863Z,10.17
2017-11-25T06:56:06.407Z,14.03
2017-11-25T06:57:08.920Z,9.90
2017-11-25T06:58:11.436Z,10.77
2017-11-25T06:59:13.993Z,9.50
2017-11-25T07:00:16.526Z,8.70
2017-11-25T07:01:19.137Z,8.93
2017-11-25T07:02:21.647Z,9.37
2017-11-25T07:03:24.159Z,10.37
2017-11-25T07:04:26.686Z,9.20
2017-11-25T07:05:29.209Z,8.13
2017-11-25T07:06:31.715Z,8.40
2017-11-25T07:07:34.252Z,11.17
2017-11-25T07:08:36.759Z,9.20
2017-11-25T07:09:39.334Z,6.00
2017-11-25T07:10:41.862Z,7.23
2017-11-25T07:11:44.398Z,10.27
2017-11-25T07:12:46.920Z,8.97
2017-11-25T07:13:49.450Z,6.13
2017-11-25T07:14:51.975Z,7.97
2017-11-25T07:15:54.486Z,6.80
2017-11-25T07:16:57.005Z,9.50
2017-11-25T07:17:59.530Z,6.70
2017-11-25T07:19:02.057Z,5.30
2017-11-25T07:20:04.599Z,8.10
2017-11-25T07:21:07.132Z,11.77
2017-11-25T07:22:09.671Z,5.90
2017-11-25T07:23:12.184Z,6.60
2017-11-25T07:24:14.726Z,5.45
2017-11-25T07:25:17.246Z,7.10
2017-11-25T07:26:19.776Z,9.63
2017-11-25T07:27:22.287Z,7.13
2017-11-25T07:28:24.794Z,5.87
2017-11-25T07:29:27.305Z,8.40
2017-11-25T07:30:29.843Z,6.03
2017-11-25T07:31:32.483Z,9.30
2017-11-25T07:32:35.000Z,7.40
2017-11-25T07:33:37.519Z,7.80
2017-11-25T07:34:40.077Z,8.20
2017-11-25T07:35:42.599Z,6.70
2017-11-25T07:36:45.124Z,9.07
2017-11-25T07:37:47.921Z,7.00
2017-11-25T07:38:50.481Z,6.83
2017-11-25T07:39:52.993Z,9.93
2017-11-25T07:40:55.498Z,8.13
2017-11-25T07:41:58.011Z,7.63
2017-11-25T07:43:00.522Z,7.00
2017-11-25T07:44:03.039Z,9.17
2017-11-25T07:45:05.581Z,10.93
2017-11-25T07:46:08.087Z,9.37
2017-11-25T07:47:10.615Z,8.10
2017-11-25T07:48:13.184Z,10.50
2017-11-25T07:49:15.710Z,8.07
2017-11-25T07:50:18.317Z,9.47
2017-11-25T07:51:20.862Z,14.13
2017-11-25T07:52:23.390Z,8.23
2017-11-25T07:53:25.911Z,11.93
2017-11-25T07:54:28.427Z,8.60
2017-11-25T07:55:30.957Z,9.57
2017-11-25T07:56:33.490Z,9.80
2017-11-25T07:57:36.013Z,9.63
2017-11-25T07:58:38.541Z,8.27
2017-11-25T07:59:41.059Z,11.33
2017-11-25T08:00:43.599Z,13.00
2017-11-25T08:01:46.119Z,6.57
2017-11-25T08:02:48.627Z,7.70
2017-11-25T08:03:51.144Z,7.33
2017-11-25T08:04:53.652Z,7.63
2017-11-25T08:05:56.306Z,8.50
2017-11-25T08:06:58.847Z,6.80
2017-11-25T08:08:01.373Z,14.27
2017-11-25T08:09:03.906Z,6.93
2017-11-25T08:10:06.438Z,15.53
2017-11-25T08:11:08.958Z,9.50
2017-11-25T08:12:11.477Z,12.10
2017-11-25T08:13:13.950Z,9.60
2017-11-25T08:14:16.416Z,7.23
2017-11-25T08:15:18.894Z,11.80
2017-11-25T08:16:21.377Z,11.63
2017-11-25T08:17:23.846Z,11.00
2017-11-25T08:18:26.321Z,10.90
2017-11-25T08:19:28.798Z,6.67
2017-11-25T08:20:31.277Z,7.60
2017-11-25T08:21:33.745Z,5.30
2017-11-25T08:22:36.223Z,7.47
2017-11-25T08:23:38.692Z,7.57
2017-11-25T08:24:41.163Z,5.63
2017-11-25T08:25:43.632Z,4.90
2017-11-25T08:26:46.124Z,4.67
2017-11-25T08:27:48.601Z,3.47
2017-11-25T08:28:51.099Z,6.60
2017-11-25T08:29:53.615Z,5.00
2017-11-25T08:30:56.371Z,7.70
2017-11-25T08:31:58.836Z,7.83
2017-11-25T08:33:01.374Z,3.03
2017-11-25T08:34:03.842Z,5.87
2017-11-25T08:35:06.345Z,5.23
2017-11-25T08:36:08.813Z,3.50
2017-11-25T08:37:11.287Z,7.77
2017-11-25T08:38:13.999Z,4.03
2017-11-25T08:39:16.535Z,3.40
2017-11-25T08:40:19.010Z,5.43
2017-11-25T08:41:21.485Z,5.00
2017-11-25T08:42:23.962Z,7.30
2017-11-25T08:43:26.498Z,5.20
2017-11-25T08:44:28.982Z,2.73
2017-11-25T08:45:31.471Z,3.57
2017-11-25T08:46:33.947Z,3.50
2017-11-25T08:47:36.429Z,3.93
2017-11-25T08:48:38.926Z,3.60
2017-11-25T08:49:41.406Z,3.67
2017-11-25T08:50:43.903Z,2.30
2017-11-25T08:51:46.367Z,1.60
2017-11-25T08:52:48.844Z,3.50
2017-11-25T08:53:51.321Z,3.10
2017-11-25T08:54:53.807Z,3.63
2017-11-25T08:55:56.282Z,1.77
2017-11-25T08:56:58.743Z,11.37
2017-11-25T08:58:01.210Z,4.33
2017-11-25T08:59:03.680Z,5.23
2017-11-25T09:00:06.144Z,2.17
2017-11-25T09:01:08.608Z,2.93
2017-11-25T09:02:11.072Z,3.83
2017-11-25T09:03:13.536Z,9.57
2017-11-25T09:04:16.010Z,3.77
2017-11-25T09:05:18.502Z,10.20
2017-11-25T09:06:21.004Z,7.37
2017-11-25T09:07:23.477Z,5.27
2017-11-25T09:08:26.292Z,4.70
2017-11-25T09:09:28.800Z,4.50
2017-11-25T09:10:31.287Z,5.80
2017-11-25T09:11:33.776Z,3.53
2017-11-25T09:12:36.250Z,4.73
2017-11-25T09:13:38.754Z,5.10
2017-11-25T09:14:41.212Z,4.50
2017-11-25T09:15:43.696Z,3.30
2017-11-25T09:16:46.204Z,5.93
2017-11-25T09:17:48.676Z,5.73
2017-11-25T09:18:51.140Z,6.10
2017-11-25T09:19:53.607Z,3.00
2017-11-25T09:20:56.084Z,2.70
2017-11-25T09:21:58.584Z,2.53
2017-11-25T09:23:01.062Z,3.43
2017-11-25T09:24:03.550Z,3.10
2017-11-25T09:25:06.026Z,2.23
2017-11-25T09:26:08.506Z,4.03
2017-11-25T09:27:10.964Z,2.23
2017-11-25T09:28:13.451Z,3.33
2017-11-25T09:29:15.927Z,2.67
2017-11-25T09:30:18.407Z,3.20
2017-11-25T09:31:20.911Z,1.40
2017-11-25T09:32:23.376Z,1.67
2017-11-25T09:33:25.840Z,5.30
2017-11-25T09:34:28.317Z,3.87
2017-11-25T09:35:30.824Z,7.20
2017-11-25T09:36:33.310Z,4.63
2017-11-25T09:37:35.826Z,3.60
2017-11-25T09:38:38.318Z,3.50
2017-11-25T09:39:40.808Z,6.63
2017-11-25T09:40:43.311Z,30.63
2017-11-25T09:41:45.798Z,4.33
2017-11-25T09:42:48.263Z,4.57
2017-11-25T09:43:50.738Z,3.40
2017-11-25T09:44:53.196Z,4.30
2017-11-25T09:45:55.677Z,8.23
2017-11-25T09:46:58.161Z,4.90
2017-11-25T09:48:00.621Z,6.30
2017-11-25T09:49:03.120Z,3.10
2017-11-25T09:50:05.583Z,4.37
2017-11-25T09:51:08.059Z,4.87
2017-11-25T09:52:10.553Z,3.50
2017-11-25T09:53:13.024Z,3.60
2017-11-25T09:54:15.492Z,4.90
2017-11-25T09:55:18.044Z,3.70
2017-11-25T09:56:20.518Z,5.13
2017-11-25T09:57:22.993Z,6.03
2017-11-25T09:58:25.453Z,3.40
2017-11-25T09:59:28.030Z,8.33
2017-11-25T10:00:30.543Z,2.97
2017-11-25T10:01:33.095Z,2.93
2017-11-25T10:02:35.621Z,4.00
2017-11-25T10:03:38.161Z,11.40
2017-11-25T10:04:40.667Z,1.80
2017-11-25T10:05:43.186Z,1.57
2017-11-25T10:06:45.797Z,4.27
2017-11-25T10:07:48.358Z,2.60
2017-11-25T10:08:50.854Z,4.10
2017-11-25T10:09:53.429Z,2.60
2017-11-25T10:10:55.907Z,2.70
2017-11-25T10:11:58.375Z,2.90
2017-11-25T10:13:00.860Z,4.00
2017-11-25T10:14:03.350Z,3.73
2017-11-25T10:15:05.827Z,1.97
2017-11-25T10:16:08.310Z,3.90
2017-11-25T10:17:10.779Z,2.27
2017-11-25T10:18:13.257Z,8.50
2017-11-25T10:19:15.741Z,2.20
2017-11-25T10:20:18.222Z,5.20
2017-11-25T10:21:20.698Z,2.60
2017-11-25T10:22:23.193Z,2.20
2017-11-25T10:23:25.733Z,2.17
2017-11-25T10:24:28.231Z,2.50
2017-11-25T10:25:30.695Z,1.93
2017-11-25T10:26:33.180Z,1.93
2017-11-25T10:27:35.695Z,2.40
2017-11-25T10:28:38.206Z,1.87
2017-11-25T10:29:40.691Z,2.60
2017-11-25T10:30:43.289Z,1.80
2017-11-25T10:31:45.753Z,2.47
2017-11-25T10:32:48.243Z,6.73
2017-11-25T10:33:50.816Z,8.53
2017-11-25T10:34:53.377Z,4.93
2017-11-25T10:35:55.857Z,4.30
2017-11-25T10:36:58.319Z,7.50
2017-11-25T10:38:00.782Z,6.40
2017-11-25T10:39:03.263Z,3.30
2017-11-25T10:40:05.739Z,3.27
2017-11-25T10:41:08.249Z,11.50
2017-11-25T10:42:10.727Z,5.17
2017-11-25T10:43:13.246Z,3.23
2017-11-25T10:44:15.733Z,3.27
2017-11-25T10:45:18.234Z,4.80
2017-11-25T10:46:20.802Z,2.90
2017-11-25T10:47:23.280Z,3.13
2017-11-25T10:48:25.784Z,9.70
2017-11-25T10:49:28.262Z,2.30
2017-11-25T10:50:30.726Z,4.57
2017-11-25T10:51:33.201Z,8.30
2017-11-25T10:52:35.675Z,1.90
2017-11-25T10:53:38.185Z,4.17
2017-11-25T10:54:40.652Z,2.00
2017-11-25T10:55:43.128Z,4.00
2017-11-25T10:56:45.669Z,5.47
2017-11-25T10:57:48.149Z,2.93
2017-11-25T10:58:50.621Z,4.27
2017-11-25T10:59:53.202Z,1.90
2017-11-25T11:00:55.671Z,2.57
2017-11-25T11:01:58.137Z,2.53
2017-11-25T11:03:00.602Z,3.83
2017-11-25T11:04:03.072Z,3.93
2017-11-25T11:05:05.560Z,8.10
2017-11-25T11:06:08.102Z,2.20
2017-11-25T11:07:10.597Z,1.73
2017-11-25T11:08:13.103Z,2.50
2017-11-25T11:09:15.591Z,1.87
2017-11-25T11:10:18.056Z,3.97
2017-11-25T11:11:20.545Z,2.70
2017-11-25T11:12:23.068Z,2.70
2017-11-25T11:13:25.551Z,3.57
2017-11-25T11:14:28.017Z,2.63
2017-11-25T11:15:30.497Z,6.63
2017-11-25T11:16:33.012Z,2.67
2017-11-25T11:17:35.579Z,5.67
2017-11-25T11:18:38.092Z,4.60
2017-11-25T11:19:40.582Z,3.20
2017-11-25T11:20:43.065Z,3.43
2017-11-25T11:21:45.526Z,2.10
2017-11-25T11:22:48.009Z,3.40
2017-11-25T11:23:50.493Z,2.80
2017-11-25T11:24:52.970Z,2.30
2017-11-25T11:25:55.471Z,1.90
2017-11-25T11:26:57.963Z,3.10
2017-11-25T11:28:00.426Z,3.10
2017-11-25T11:29:02.898Z,2.33
2017-11-25T11:30:05.359Z,3.37
2017-11-25T11:31:07.841Z,1.83
2017-11-25T11:32:10.300Z,7.43
2017-11-25T11:33:12.763Z,1.47
2017-11-25T11:34:15.238Z,1.60
2017-11-25T11:35:17.711Z,2.03
2017-11-25T11:36:20.290Z,2.47
2017-11-25T11:37:22.759Z,3.83
2017-11-25T11:38:25.259Z,1.40
2017-11-25T11:39:27.740Z,2.03
2017-11-25T11:40:30.253Z,1.93
2017-11-25T11:41:32.746Z,2.50
2017-11-25T11:42:35.237Z,3.13
2017-11-25T11:43:37.745Z,3.10
2017-11-25T11:44:40.204Z,1.90
2017-11-25T11:45:42.687Z,3.90
2017-11-25T11:46:45.178Z,3.80
2017-11-25T11:47:47.778Z,2.60
2017-11-25T11:48:50.239Z,1.63
2017-11-25T11:49:52.755Z,2.50
2017-11-25T11:50:55.264Z,3.47
2017-11-25T11:51:57.751Z,4.73
2017-11-25T11:53:00.222Z,4.83
2017-11-25T11:54:02.715Z,5.03
2017-11-25T11:55:05.180Z,5.23
2017-11-25T11:56:08.027Z,4.10
2017-11-25T11:57:10.702Z,6.97
2017-11-25T11:58:13.268Z,8.53
2017-11-25T11:59:15.874Z,5.77
2017-11-25T12:00:18.815Z,4.57
2017-11-25T12:01:21.463Z,2.93
2017-11-25T12:02:24.048Z,3.83
2017-11-25T12:03:26.633Z,4.90
2017-11-25T12:04:29.182Z,4.73
2017-11-25T12:05:31.743Z,3.90
2017-11-25T12:06:34.341Z,3.77
2017-11-25T12:07:36.826Z,3.43
2017-11-25T12:08:39.313Z,4.60
2017-11-25T12:09:41.854Z,3.93
2017-11-25T12:10:44.327Z,5.50
2017-11-25T12:11:46.802Z,4.50
2017-11-25T12:12:49.282Z,5.73
2017-11-25T12:13:51.751Z,5.10
2017-11-25T12:14:54.230Z,10.07
2017-11-25T12:15:56.711Z,4.70
2017-11-25T12:16:59.190Z,4.73
2017-11-25T12:18:01.710Z,4.97
2017-11-25T12:19:04.186Z,2.90
2017-11-25T12:20:06.682Z,6.83
2017-11-25T12:21:09.166Z,3.63
2017-11-25T12:22:11.653Z,3.63
2017-11-25T12:23:14.113Z,3.23
2017-11-25T12:24:16.590Z,3.83
2017-11-25T12:25:19.077Z,2.90
2017-11-25T12:26:21.570Z,5.83
2017-11-25T12:27:24.134Z,6.93
2017-11-25T12:28:26.603Z,4.17
2017-11-25T12:29:29.072Z,2.83
2017-11-25T12:30:31.580Z,5.07
2017-11-25T12:31:34.040Z,8.40
2017-11-25T12:32:36.515Z,4.07
2017-11-25T12:33:38.980Z,2.03
2017-11-25T12:34:41.462Z,9.63
2017-11-25T12:35:43.951Z,4.20
2017-11-25T12:36:46.431Z,2.60
2017-11-25T12:37:48.895Z,4.37
2017-11-25T12:38:51.365Z,8.73
2017-11-25T12:39:53.890Z,3.90
2017-11-25T12:40:56.360Z,2.70
2017-11-25T12:41:58.825Z,2.60
2017-11-25T12:43:01.292Z,7.57
2017-11-25T12:44:03.753Z,3.80
2017-11-25T12:45:06.223Z,3.00
2017-11-25T12:46:08.720Z,3.07
2017-11-25T12:47:11.180Z,2.77
2017-11-25T12:48:13.645Z,5.93
2017-11-25T12:49:16.129Z,3.37
2017-11-25T12:50:18.614Z,2.90
2017-11-25T12:51:21.085Z,2.87
2017-11-25T12:52:23.544Z,3.13
2017-11-25T12:53:26.015Z,2.63
2017-11-25T12:54:28.489Z,3.20
2017-11-25T12:55:30.990Z,2.70
2017-11-25T12:56:33.464Z,3.87
2017-11-25T12:57:35.945Z,2.70
2017-11-25T12:58:38.427Z,4.20
2017-11-25T12:59:40.885Z,2.53
2017-11-25T13:00:43.360Z,2.70
2017-11-25T13:01:45.820Z,2.93
2017-11-25T13:02:48.282Z,3.50
2017-11-25T13:03:50.745Z,3.27
2017-11-25T13:04:53.217Z,2.63
2017-11-25T13:05:55.703Z,3.77
2017-11-25T13:06:58.185Z,4.67
2017-11-25T13:08:00.649Z,2.20
2017-11-25T13:09:03.138Z,3.90
2017-11-25T13:10:05.605Z,2.57
2017-11-25T13:11:08.082Z,2.17
2017-11-25T13:12:10.557Z,2.40
2017-11-25T13:13:13.025Z,3.20
2017-11-25T13:14:15.522Z,2.33
2017-11-25T13:15:17.992Z,1.93
2017-11-25T13:16:20.482Z,3.83
2017-11-25T13:17:22.962Z,4.73
2017-11-25T13:18:25.443Z,5.67
2017-11-25T13:19:27.923Z,5.17
2017-11-25T13:20:30.498Z,1.90
2017-11-25T13:21:32.969Z,3.73
2017-11-25T13:22:35.428Z,4.33
2017-11-25T13:23:37.885Z,2.20
2017-11-25T13:24:40.345Z,4.30
2017-11-25T13:25:42.804Z,3.53
2017-11-25T13:26:45.285Z,2.60
2017-11-25T13:27:47.763Z,2.40
2017-11-25T13:28:50.223Z,4.60
2017-11-25T13:29:52.702Z,3.57
2017-11-25T13:30:55.182Z,2.37
2017-11-25T13:31:57.648Z,4.87
2017-11-25T13:33:00.108Z,12.23
2017-11-25T13:34:02.583Z,8.60
2017-11-25T13:35:05.098Z,7.43
2017-11-25T13:36:07.602Z,4.13
2017-11-25T13:37:10.065Z,8.00
2017-11-25T13:38:12.577Z,4.77
2017-11-25T13:39:15.058Z,5.47
2017-11-25T13:40:17.539Z,3.30
2017-11-25T13:41:20.009Z,10.30
2017-11-25T13:42:22.521Z,13.53
2017-11-25T13:43:25.002Z,4.80
2017-11-25T13:44:27.465Z,5.87
2017-11-25T13:45:29.929Z,5.37